Time;durP1;ratioP1;P1;durP2;ratioP2;P2;SDS_P1;SDS_P2;PMS_P1;PMS_P2;Temp;Humidity;BMP_temperature;BMP_pressure;BME280_temperature;BME280_humidity;BME280_pressure;Samples;Min_cycle;Max_cycle;Signal;HPM_P1;HPM_P2
2023/12/21 00:01:16;;;;;;;3.67;3.37;;;6.10;99.90;;;;;;5060474;28;20199;-55
2023/12/21 00:03:42;;;;;;;5.53;4.00;;;6.20;99.90;;;;;;5067431;28;20229;-57
2023/12/21 00:06:09;;;;;;;3.07;2.77;;;6.20;99.90;;;;;;5067334;28;20225;-58
2023/12/21 00:08:36;;;;;;;3.07;2.77;;;6.20;99.90;;;;;;5056990;28;20222;-58
2023/12/21 00:11:03;;;;;;;1.93;1.73;;;6.20;99.90;;;;;;5067783;28;20207;-56
2023/12/21 00:13:30;;;;;;;3.03;2.30;;;6.30;99.90;;;;;;5066162;28;20753;-57
2023/12/21 00:15:56;;;;;;;3.43;1.97;;;6.40;99.90;;;;;;5072427;28;20302;-57
2023/12/21 00:18:25;;;;;;;2.67;2.47;;;6.40;99.90;;;;;;5041345;28;20650;-57
2023/12/21 00:20:50;;;;;;;3.10;2.80;;;6.40;99.90;;;;;;5068174;28;20215;-57
2023/12/21 00:23:17;;;;;;;3.07;2.77;;;6.40;99.90;;;;;;5075201;28;20245;-58
2023/12/21 00:25:44;;;;;;;4.47;2.37;;;6.30;99.90;;;;;;5073987;28;20195;-56
2023/12/21 00:28:11;;;;;;;5.00;2.97;;;6.30;99.90;;;;;;5073477;28;20825;-56
2023/12/21 00:30:38;;;;;;;3.23;2.80;;;6.30;99.90;;;;;;5072830;28;20214;-58
2023/12/21 00:33:05;;;;;;;4.33;3.13;;;6.30;99.90;;;;;;5045496;28;20187;-57
2023/12/21 00:35:33;;;;;;;2.90;2.60;;;6.30;99.90;;;;;;5074991;28;20251;-58
2023/12/21 00:38:01;;;;;;;3.10;2.57;;;6.30;99.90;;;;;;5079289;28;20450;-57
2023/12/21 00:40:28;;;;;;;3.33;2.73;;;6.30;99.90;;;;;;5080445;28;20222;-56
2023/12/21 00:42:55;;;;;;;3.63;2.70;;;6.40;99.90;;;;;;5077777;28;20205;-56
2023/12/21 00:45:22;;;;;;;3.97;2.70;;;6.40;99.90;;;;;;5086745;28;20796;-57
2023/12/21 00:47:49;;;;;;;4.43;2.20;;;6.40;99.90;;;;;;5073842;28;20201;-56
2023/12/21 00:50:16;;;;;;;5.30;2.53;;;6.50;99.90;;;;;;5067667;28;20963;-58
2023/12/21 00:52:45;;;;;;;3.90;2.13;;;6.50;99.90;;;;;;5087604;28;20198;-58
2023/12/21 00:55:11;;;;;;;5.93;2.60;;;6.60;99.90;;;;;;5072565;28;20263;-57
2023/12/21 00:57:38;;;;;;;5.17;2.10;;;6.70;99.90;;;;;;5081840;28;20251;-58
2023/12/21 01:00:06;;;;;;;9.33;2.20;;;6.80;99.90;;;;;;5076815;28;20214;-57
2023/12/21 01:02:34;;;;;;;9.80;2.70;;;6.80;99.90;;;;;;5080285;28;20198;-56
2023/12/21 01:05:01;;;;;;;12.20;2.57;;;6.90;99.90;;;;;;5050839;28;20232;-58
2023/12/21 01:07:28;;;;;;;13.23;2.77;;;7.00;99.90;;;;;;5091059;28;20187;-58
2023/12/21 01:09:56;;;;;;;22.30;3.37;;;7.10;99.90;;;;;;5080217;28;20221;-58
2023/12/21 01:12:23;;;;;;;23.63;3.13;;;7.20;99.90;;;;;;5069483;28;20267;-58
2023/12/21 01:14:50;;;;;;;13.53;2.63;;;7.40;99.90;;;;;;5073163;28;20743;-56
2023/12/21 01:17:17;;;;;;;19.90;3.03;;;7.60;99.90;;;;;;5070720;28;20190;-57
2023/12/21 01:19:44;;;;;;;15.87;2.80;;;7.60;99.90;;;;;;5056572;28;20629;-58
2023/12/21 01:22:10;;;;;;;18.23;3.20;;;7.70;99.90;;;;;;5078940;28;20443;-58
2023/12/21 01:24:39;;;;;;;13.93;2.70;;;7.80;99.90;;;;;;5079319;28;20214;-57
2023/12/21 01:27:07;;;;;;;17.27;3.50;;;7.90;99.90;;;;;;5078476;28;20205;-58
2023/12/21 01:29:33;;;;;;;14.07;2.20;;;7.90;99.90;;;;;;5078611;28;20982;-58
2023/12/21 01:32:00;;;;;;;13.17;1.83;;;7.90;99.90;;;;;;5076545;28;20194;-58
2023/12/21 01:34:27;;;;;;;13.20;2.43;;;8.00;99.90;;;;;;5061914;28;20671;-58
2023/12/21 01:36:54;;;;;;;14.83;2.13;;;8.00;99.90;;;;;;5078747;28;20259;-57
2023/12/21 01:39:21;;;;;;;16.83;3.20;;;8.00;99.90;;;;;;5083027;28;20305;-58
2023/12/21 01:41:48;;;;;;;13.83;3.17;;;8.00;99.90;;;;;;5076002;28;20190;-58
2023/12/21 01:44:16;;;;;;;11.83;1.93;;;8.10;99.90;;;;;;5084628;28;20303;-56
2023/12/21 01:46:45;;;;;;;12.00;1.77;;;8.10;99.90;;;;;;5086274;28;20228;-58
2023/12/21 01:49:12;;;;;;;10.67;2.33;;;8.10;99.90;;;;;;5073699;28;20227;-59
2023/12/21 01:51:40;;;;;;;12.90;2.20;;;8.10;99.90;;;;;;5060087;28;20240;-57
2023/12/21 01:54:07;;;;;;;11.47;2.07;;;8.10;99.90;;;;;;5070777;28;20189;-58
2023/12/21 01:56:34;;;;;;;12.43;2.60;;;8.20;99.90;;;;;;5083307;28;20200;-57
2023/12/21 01:59:01;;;;;;;13.87;2.27;;;8.10;99.90;;;;;;5068322;28;20283;-59
2023/12/21 02:01:31;;;;;;;11.70;2.20;;;8.20;99.90;;;;;;5082017;28;20197;-57
2023/12/21 02:03:58;;;;;;;23.47;2.53;;;8.20;99.90;;;;;;5083303;28;20218;-58
2023/12/21 02:06:26;;;;;;;9.73;2.20;;;8.20;99.90;;;;;;5052782;28;20748;-57
2023/12/21 02:08:52;;;;;;;10.10;2.10;;;8.20;99.90;;;;;;5073765;28;20201;-58
2023/12/21 02:11:19;;;;;;;12.70;2.00;;;8.20;99.90;;;;;;5079515;28;20236;-57
2023/12/21 02:13:46;;;;;;;8.50;2.10;;;8.20;99.90;;;;;;5078382;28;20661;-58
2023/12/21 02:16:17;;;;;;;10.33;2.30;;;8.20;99.90;;;;;;5068499;28;21667;-57
2023/12/21 02:18:47;;;;;;;16.43;2.53;;;8.20;99.90;;;;;;5070966;28;20204;-58
2023/12/21 02:21:14;;;;;;;16.23;3.10;;;8.20;99.90;;;;;;5054806;28;20260;-58
2023/12/21 02:23:43;;;;;;;18.97;3.43;;;8.20;99.90;;;;;;5080404;28;20228;-58
2023/12/21 02:26:13;;;;;;;14.17;2.23;;;8.20;99.90;;;;;;5078517;28;20979;-58
2023/12/21 02:28:40;;;;;;;14.00;2.00;;;8.20;99.90;;;;;;5072825;28;20198;-58
2023/12/21 02:31:07;;;;;;;13.23;2.93;;;8.30;99.90;;;;;;5074885;28;20206;-58
2023/12/21 02:33:34;;;;;;;13.53;2.10;;;8.30;99.90;;;;;;5080913;28;20248;-56
2023/12/21 02:36:02;;;;;;;14.17;2.30;;;8.30;99.90;;;;;;5052786;28;20225;-58
2023/12/21 02:38:29;;;;;;;17.63;2.03;;;8.20;99.90;;;;;;5078044;28;20236;-56
2023/12/21 02:40:58;;;;;;;12.97;2.50;;;8.30;99.90;;;;;;5071959;28;20823;-56
2023/12/21 02:43:26;;;;;;;13.63;1.90;;;8.30;99.90;;;;;;5083223;28;20210;-57
2023/12/21 02:45:52;;;;;;;10.63;2.10;;;8.30;99.90;;;;;;5085563;28;20193;-58
2023/12/21 02:48:19;;;;;;;10.03;1.80;;;8.30;99.90;;;;;;5072188;28;20332;-56
2023/12/21 02:50:46;;;;;;;8.47;1.87;;;8.30;99.90;;;;;;5059868;28;20272;-57
2023/12/21 02:53:13;;;;;;;13.90;2.57;;;8.30;99.90;;;;;;5053104;28;20991;-58
2023/12/21 02:55:40;;;;;;;21.13;2.50;;;8.30;99.90;;;;;;5069544;28;20684;-57
2023/12/21 02:58:07;;;;;;;12.63;2.30;;;8.30;99.90;;;;;;5069013;28;20975;-62
2023/12/21 03:00:35;;;;;;;9.87;2.40;;;8.30;99.90;;;;;;5070721;28;20214;-58
2023/12/21 03:03:01;;;;;;;10.83;2.20;;;8.30;99.90;;;;;;5069532;28;20194;-58
2023/12/21 03:05:28;;;;;;;13.97;2.87;;;8.30;99.90;;;;;;5066204;28;20634;-58
2023/12/21 03:07:55;;;;;;;17.90;2.30;;;8.30;99.90;;;;;;5043498;28;20667;-57
2023/12/21 03:10:22;;;;;;;13.10;2.10;;;8.30;99.90;;;;;;5063500;28;20222;-58
2023/12/21 03:12:49;;;;;;;18.13;2.97;;;8.30;99.90;;;;;;5067869;28;20731;-57
2023/12/21 03:15:15;;;;;;;14.07;3.57;;;8.30;99.90;;;;;;5072548;28;20248;-56
2023/12/21 03:17:44;;;;;;;12.13;2.60;;;8.40;99.90;;;;;;5068351;28;20198;-57
2023/12/21 03:20:11;;;;;;;13.00;2.50;;;8.40;99.90;;;;;;5071622;28;20383;-59
2023/12/21 03:22:38;;;;;;;12.13;2.27;;;8.40;99.90;;;;;;5068749;28;20227;-57
2023/12/21 03:25:06;;;;;;;14.90;2.50;;;8.40;99.90;;;;;;5058457;28;20853;-58
2023/12/21 03:27:33;;;;;;;15.67;4.00;;;8.50;99.90;;;;;;5082876;28;20186;-57
2023/12/21 03:30:00;;;;;;;16.40;2.57;;;8.40;99.90;;;;;;5073372;28;20218;-58
2023/12/21 03:32:28;;;;;;;14.63;3.40;;;8.50;99.90;;;;;;5073769;28;20660;-58
2023/12/21 03:34:56;;;;;;;20.20;3.60;;;8.50;99.90;;;;;;5065965;28;20191;-58
2023/12/21 03:37:27;;;;;;;13.40;2.30;;;8.50;99.90;;;;;;5070823;28;20198;-57
2023/12/21 03:39:54;;;;;;;15.53;3.10;;;8.50;99.90;;;;;;5058010;28;20295;-56
2023/12/21 03:42:21;;;;;;;15.07;2.63;;;8.50;99.90;;;;;;5064069;28;20256;-58
2023/12/21 03:44:48;;;;;;;18.33;3.23;;;8.50;99.90;;;;;;5071580;28;20688;-56
2023/12/21 03:47:15;;;;;;;11.80;2.20;;;8.50;99.90;;;;;;5069889;28;20520;-58
2023/12/21 03:49:42;;;;;;;19.40;2.57;;;8.50;99.90;;;;;;5076636;28;20295;-58
2023/12/21 03:52:10;;;;;;;12.87;2.57;;;8.60;99.90;;;;;;5071859;28;20191;-56
2023/12/21 03:54:37;;;;;;;12.67;3.10;;;8.50;99.90;;;;;;5047982;28;20271;-56
2023/12/21 03:57:04;;;;;;;10.47;2.97;;;8.50;99.90;;;;;;5069813;28;20985;-58
2023/12/21 03:59:31;;;;;;;12.07;2.97;;;8.50;99.90;;;;;;5073163;28;20271;-58
2023/12/21 04:01:58;;;;;;;10.00;2.87;;;8.50;99.90;;;;;;5070034;28;20190;-58
2023/12/21 04:04:25;;;;;;;13.80;3.57;;;8.60;99.90;;;;;;5074278;28;20218;-56
2023/12/21 04:06:52;;;;;;;14.87;3.97;;;8.50;99.90;;;;;;5069722;28;20680;-58
2023/12/21 04:09:21;;;;;;;10.33;3.00;;;8.60;99.90;;;;;;5071518;28;20595;-58
2023/12/21 04:11:47;;;;;;;13.43;3.10;;;8.50;99.90;;;;;;5054821;28;20778;-58
2023/12/21 04:14:14;;;;;;;11.57;3.13;;;8.60;99.90;;;;;;5069228;28;20198;-55
2023/12/21 04:16:41;;;;;;;10.37;3.30;;;8.60;99.90;;;;;;5068102;28;20214;-58
2023/12/21 04:19:08;;;;;;;8.57;2.73;;;8.60;99.90;;;;;;5072234;28;20217;-59
2023/12/21 04:21:35;;;;;;;8.07;2.03;;;8.60;99.90;;;;;;5081702;28;20194;-58
2023/12/21 04:24:02;;;;;;;9.10;2.40;;;8.60;99.90;;;;;;5081908;28;20322;-57
2023/12/21 04:26:30;;;;;;;6.13;2.37;;;8.50;99.90;;;;;;5047635;28;20208;-58
2023/12/21 04:28:57;;;;;;;9.10;2.60;;;8.60;99.90;;;;;;5069069;28;20518;-56
2023/12/21 04:31:24;;;;;;;16.67;2.40;;;8.60;99.90;;;;;;5074436;28;20202;-59
2023/12/21 04:33:52;;;;;;;9.93;2.13;;;8.60;99.90;;;;;;5072168;28;20971;-56
2023/12/21 04:36:20;;;;;;;9.23;1.70;;;8.60;99.90;;;;;;5076884;28;20190;-58
2023/12/21 04:38:47;;;;;;;5.97;1.50;;;8.60;99.90;;;;;;5066334;28;20261;-59
2023/12/21 04:41:13;;;;;;;7.73;1.77;;;8.60;99.90;;;;;;5052292;28;20206;-56
2023/12/21 04:43:42;;;;;;;4.40;1.60;;;8.60;99.90;;;;;;5084242;28;20284;-58
2023/12/21 04:46:10;;;;;;;5.43;1.90;;;8.60;99.90;;;;;;5072219;28;20252;-57
2023/12/21 04:48:37;;;;;;;6.43;1.60;;;8.60;99.90;;;;;;5076639;28;20247;-58
2023/12/21 04:51:04;;;;;;;6.77;1.47;;;8.60;99.90;;;;;;5078837;28;20205;-57
2023/12/21 04:53:30;;;;;;;4.93;1.80;;;8.60;99.90;;;;;;5073169;28;20251;-58
2023/12/21 04:55:57;;;;;;;4.80;1.40;;;8.60;99.90;;;;;;5075731;28;20186;-58
2023/12/21 04:58:24;;;;;;;3.70;1.03;;;8.60;99.90;;;;;;5062073;28;20271;-58
2023/12/21 05:00:52;;;;;;;2.97;1.10;;;8.60;99.90;;;;;;5069859;28;20229;-58
2023/12/21 05:03:19;;;;;;;2.40;1.13;;;8.60;99.90;;;;;;5083859;28;20540;-58
2023/12/21 05:05:46;;;;;;;2.23;1.13;;;8.60;99.90;;;;;;5066930;28;20629;-59
2023/12/21 05:08:13;;;;;;;3.77;1.10;;;8.60;99.90;;;;;;5081147;28;20202;-58
2023/12/21 05:10:40;;;;;;;1.47;1.37;;;8.60;99.90;;;;;;5074790;28;20214;-58
2023/12/21 05:13:08;;;;;;;4.53;1.40;;;8.60;99.90;;;;;;5048099;28;20217;-59
2023/12/21 05:15:34;;;;;;;4.37;0.90;;;8.60;99.90;;;;;;5074915;28;20206;-57
2023/12/21 05:18:03;;;;;;;0.70;0.67;;;8.60;99.90;;;;;;5068184;28;20227;-56
2023/12/21 05:20:29;;;;;;;2.27;0.97;;;8.60;99.90;;;;;;5072752;28;20214;-58
2023/12/21 05:22:56;;;;;;;3.00;0.90;;;8.60;99.90;;;;;;5071255;28;20224;-58
2023/12/21 05:25:24;;;;;;;1.23;1.03;;;8.60;99.90;;;;;;5068165;28;20302;-58
2023/12/21 05:27:51;;;;;;;1.67;0.87;;;8.60;99.90;;;;;;5066720;28;20212;-58
2023/12/21 05:30:18;;;;;;;1.57;0.80;;;8.70;99.90;;;;;;5081111;28;20291;-58
2023/12/21 05:32:45;;;;;;;1.37;1.20;;;8.70;99.90;;;;;;5071783;28;20206;-57
2023/12/21 05:35:13;;;;;;;1.77;1.00;;;8.60;99.90;;;;;;5085259;28;20191;-58
2023/12/21 05:37:40;;;;;;;3.93;0.80;;;8.60;99.90;;;;;;5070878;28;20245;-57
2023/12/21 05:40:08;;;;;;;2.67;0.90;;;8.60;99.90;;;;;;5076135;28;20934;-56
2023/12/21 05:42:35;;;;;;;1.23;1.10;;;8.70;99.90;;;;;;5068606;28;20248;-58
2023/12/21 05:45:02;;;;;;;1.57;1.00;;;8.70;99.90;;;;;;5060039;28;20215;-56
2023/12/21 05:47:31;;;;;;;1.53;1.00;;;8.70;99.90;;;;;;5075106;28;20290;-58
2023/12/21 05:49:58;;;;;;;2.03;0.90;;;8.70;99.90;;;;;;5060048;28;20221;-57
2023/12/21 05:52:26;;;;;;;0.83;0.60;;;8.70;99.90;;;;;;5077494;28;20213;-58
2023/12/21 05:54:53;;;;;;;1.70;0.90;;;8.70;99.90;;;;;;5061799;28;20301;-56
2023/12/21 05:57:20;;;;;;;1.67;0.70;;;8.70;99.90;;;;;;5080784;28;20216;-58
2023/12/21 05:59:47;;;;;;;0.97;0.77;;;8.70;99.90;;;;;;5056383;28;20321;-56
2023/12/21 06:02:14;;;;;;;1.20;0.80;;;8.70;99.90;;;;;;5067267;28;20209;-59
2023/12/21 06:04:41;;;;;;;1.37;0.67;;;8.70;99.90;;;;;;5065894;28;20271;-58
2023/12/21 06:07:08;;;;;;;0.97;0.50;;;8.70;99.90;;;;;;5085845;28;20189;-59
2023/12/21 06:09:36;;;;;;;0.47;0.40;;;8.70;99.90;;;;;;5071729;28;20229;-58
2023/12/21 06:12:03;;;;;;;1.43;0.50;;;8.70;99.90;;;;;;5068986;28;20251;-58
2023/12/21 06:14:31;;;;;;;0.43;0.37;;;8.70;99.90;;;;;;5064649;28;20194;-58
2023/12/21 06:16:57;;;;;;;0.40;0.40;;;8.70;99.90;;;;;;5054949;28;21118;-57
2023/12/21 06:19:24;;;;;;;1.03;0.60;;;8.70;99.90;;;;;;5063786;28;20257;-58
2023/12/21 06:21:51;;;;;;;1.13;0.50;;;8.70;99.90;;;;;;5076749;28;20259;-58
2023/12/21 06:24:18;;;;;;;0.50;0.50;;;8.70;99.90;;;;;;5073012;28;20571;-58
2023/12/21 06:26:46;;;;;;;0.40;0.40;;;8.70;99.90;;;;;;5071994;28;20851;-56
2023/12/21 06:29:13;;;;;;;0.60;0.60;;;8.70;99.90;;;;;;5065411;28;20287;-58
2023/12/21 06:31:40;;;;;;;0.40;0.40;;;8.70;99.90;;;;;;5047392;28;20230;-58
2023/12/21 06:34:07;;;;;;;2.10;0.40;;;8.70;99.90;;;;;;5067758;28;20255;-58
2023/12/21 06:36:34;;;;;;;0.50;0.50;;;8.70;99.90;;;;;;5069280;28;20287;-58
2023/12/21 06:39:01;;;;;;;0.43;0.40;;;8.70;99.90;;;;;;5068337;28;20626;-58
2023/12/21 06:41:28;;;;;;;1.43;0.37;;;8.70;99.90;;;;;;5064209;28;20213;-58
2023/12/21 06:43:56;;;;;;;0.40;0.40;;;8.70;99.90;;;;;;5066988;28;20197;-59
2023/12/21 06:46:23;;;;;;;0.40;0.30;;;8.70;99.90;;;;;;5064435;28;20270;-58
2023/12/21 06:48:50;;;;;;;0.50;0.50;;;8.70;99.90;;;;;;5051102;28;20293;-57
2023/12/21 06:51:17;;;;;;;1.10;0.30;;;8.70;99.90;;;;;;5076366;28;20263;-58
2023/12/21 06:53:44;;;;;;;1.70;0.60;;;8.70;99.90;;;;;;5065778;28;20192;-56
2023/12/21 06:56:11;;;;;;;1.37;0.50;;;8.70;99.90;;;;;;5066393;28;20202;-56
2023/12/21 06:58:37;;;;;;;0.50;0.50;;;8.80;99.90;;;;;;5070241;28;20194;-56
2023/12/21 07:01:06;;;;;;;0.50;0.40;;;8.70;99.90;;;;;;5077425;28;20225;-55
2023/12/21 07:03:33;;;;;;;0.67;0.67;;;8.80;99.90;;;;;;5057358;28;20657;-55
2023/12/21 07:05:59;;;;;;;1.27;0.63;;;8.70;99.90;;;;;;5066907;28;20358;-55
2023/12/21 07:08:26;;;;;;;1.63;0.90;;;8.80;99.90;;;;;;5083181;28;20259;-54
2023/12/21 07:10:53;;;;;;;1.00;1.00;;;8.70;99.90;;;;;;5089298;28;20265;-55
2023/12/21 07:13:20;;;;;;;1.20;1.10;;;8.70;99.90;;;;;;5072884;28;20201;-56
2023/12/21 07:15:47;;;;;;;0.97;0.97;;;8.70;99.90;;;;;;5073472;28;20232;-56
2023/12/21 07:18:15;;;;;;;0.80;0.80;;;8.70;99.90;;;;;;5041809;28;20214;-53
2023/12/21 07:20:43;;;;;;;1.27;1.17;;;8.80;99.90;;;;;;5070974;28;20298;-56
2023/12/21 07:23:10;;;;;;;1.00;1.00;;;8.80;99.90;;;;;;5071769;28;20754;-55
2023/12/21 07:25:36;;;;;;;0.70;0.70;;;8.80;99.90;;;;;;5076217;28;20216;-56
2023/12/21 07:28:03;;;;;;;0.70;0.70;;;8.80;99.90;;;;;;5067928;28;20221;-56
2023/12/21 07:30:30;;;;;;;1.23;0.80;;;8.80;99.90;;;;;;5069365;28;20350;-56
2023/12/21 07:32:57;;;;;;;0.70;0.70;;;8.80;99.90;;;;;;5074970;28;20194;-55
2023/12/21 07:35:25;;;;;;;0.83;0.80;;;8.80;99.90;;;;;;5033629;28;23427;-57
2023/12/21 07:37:52;;;;;;;1.17;0.67;;;8.80;99.90;;;;;;5067081;28;20205;-55
2023/12/21 07:40:19;;;;;;;0.40;0.40;;;8.80;99.90;;;;;;5063603;28;20217;-56
2023/12/21 07:42:46;;;;;;;1.03;0.60;;;8.90;99.90;;;;;;5069403;28;20694;-57
2023/12/21 07:45:13;;;;;;;0.97;0.50;;;8.90;99.90;;;;;;5062247;28;20295;-57
2023/12/21 07:47:39;;;;;;;0.40;0.40;;;8.90;99.90;;;;;;5069445;28;20190;-54
2023/12/21 07:50:07;;;;;;;0.50;0.50;;;8.90;99.90;;;;;;5055146;28;20234;-56
2023/12/21 07:52:35;;;;;;;0.40;0.40;;;8.90;99.90;;;;;;5073661;28;20190;-55
2023/12/21 07:55:02;;;;;;;0.37;0.33;;;8.80;99.90;;;;;;5071796;28;20252;-57
2023/12/21 07:57:29;;;;;;;0.77;0.70;;;8.90;99.90;;;;;;5070441;28;20186;-56
2023/12/21 07:59:56;;;;;;;0.93;0.50;;;8.90;99.90;;;;;;5077301;28;20768;-58
2023/12/21 08:02:22;;;;;;;0.40;0.40;;;8.90;99.90;;;;;;5070434;28;20182;-57
2023/12/21 08:04:49;;;;;;;1.70;0.50;;;8.90;99.90;;;;;;5078009;28;20341;-57
2023/12/21 08:07:16;;;;;;;0.60;0.40;;;8.90;99.90;;;;;;5054017;28;20256;-57
2023/12/21 08:09:45;;;;;;;0.33;0.33;;;8.90;99.90;;;;;;5076116;28;20245;-58
2023/12/21 08:12:13;;;;;;;0.40;0.40;;;8.90;99.90;;;;;;5074566;28;20206;-58
2023/12/21 08:14:40;;;;;;;0.60;0.50;;;8.90;99.90;;;;;;5067779;28;20195;-57
2023/12/21 08:17:09;;;;;;;0.40;0.40;;;8.90;99.90;;;;;;5073224;28;20753;-58
2023/12/21 08:19:37;;;;;;;0.27;0.27;;;8.90;99.90;;;;;;5077692;28;20221;-54
2023/12/21 08:22:05;;;;;;;0.40;0.40;;;9.00;99.90;;;;;;5058404;28;20208;-57
2023/12/21 08:24:33;;;;;;;0.93;0.20;;;8.90;99.90;;;;;;5080210;28;20193;-59
2023/12/21 08:27:01;;;;;;;0.20;0.20;;;8.90;99.90;;;;;;5067145;28;20545;-56
2023/12/21 08:29:28;;;;;;;0.30;0.20;;;8.90;99.90;;;;;;5069929;28;20207;-58
2023/12/21 08:31:55;;;;;;;0.20;0.20;;;8.90;99.90;;;;;;5071557;28;20726;-56
2023/12/21 08:34:22;;;;;;;0.27;0.20;;;8.90;99.90;;;;;;5068403;28;20988;-55
2023/12/21 08:36:50;;;;;;;0.50;0.23;;;9.00;99.90;;;;;;5072992;28;20194;-58
2023/12/21 08:39:17;;;;;;;1.30;0.20;;;8.90;99.90;;;;;;5047325;28;20218;-57
2023/12/21 08:41:44;;;;;;;0.13;0.10;;;9.00;99.90;;;;;;5058441;28;20277;-57
2023/12/21 08:44:12;;;;;;;0.10;0.10;;;8.90;99.90;;;;;;5076694;28;20252;-54
2023/12/21 08:46:43;;;;;;;1.23;0.20;;;9.00;99.90;;;;;;5058263;28;20751;-57
2023/12/21 08:49:11;;;;;;;0.20;0.10;;;8.90;99.90;;;;;;5085943;28;20592;-55
2023/12/21 08:51:38;;;;;;;0.10;0.10;;;8.90;99.90;;;;;;5070965;28;20202;-58
2023/12/21 08:54:06;;;;;;;0.87;0.30;;;9.00;99.90;;;;;;5056315;28;20220;-57
2023/12/21 08:56:33;;;;;;;0.93;0.20;;;8.90;99.90;;;;;;5074936;28;20202;-56
2023/12/21 08:59:01;;;;;;;0.27;0.27;;;9.00;99.90;;;;;;5075936;28;20193;-56
2023/12/21 09:01:30;;;;;;;0.30;0.30;;;9.00;99.90;;;;;;5075643;28;20678;-56
2023/12/21 09:03:58;;;;;;;0.60;0.30;;;8.90;99.90;;;;;;5076318;28;21003;-56
2023/12/21 09:06:25;;;;;;;1.07;0.20;;;9.00;99.90;;;;;;5070237;28;20216;-57
2023/12/21 09:08:52;;;;;;;0.20;0.20;;;9.00;99.90;;;;;;5057954;28;21561;-56
2023/12/21 09:11:19;;;;;;;1.23;0.40;;;8.90;99.90;;;;;;5077694;28;20202;-58
2023/12/21 09:13:46;;;;;;;0.93;0.30;;;8.90;99.90;;;;;;5073124;28;20194;-56
2023/12/21 09:16:14;;;;;;;0.93;0.93;;;8.90;99.90;;;;;;5064646;28;20912;-57
2023/12/21 09:18:44;;;;;;;0.43;0.30;;;8.90;99.90;;;;;;5071149;28;20200;-57
2023/12/21 09:21:11;;;;;;;0.40;0.40;;;8.90;99.90;;;;;;5075102;28;20221;-55
2023/12/21 09:23:39;;;;;;;1.40;0.40;;;8.90;99.90;;;;;;5075800;28;20208;-56
2023/12/21 09:26:08;;;;;;;0.47;0.30;;;8.90;99.90;;;;;;5056782;28;20925;-55
2023/12/21 09:28:36;;;;;;;1.13;0.70;;;8.90;99.90;;;;;;5062647;28;20846;-58
2023/12/21 09:31:03;;;;;;;0.87;0.60;;;9.00;99.90;;;;;;5075568;28;20249;-57
2023/12/21 09:33:33;;;;;;;0.40;0.40;;;9.00;99.90;;;;;;5067532;28;20264;-58
2023/12/21 09:36:01;;;;;;;1.00;0.47;;;9.00;99.90;;;;;;5071669;28;20227;-58
2023/12/21 09:38:28;;;;;;;1.03;0.50;;;9.00;99.90;;;;;;5075812;28;20187;-57
2023/12/21 09:40:57;;;;;;;2.03;0.70;;;9.00;99.90;;;;;;5047818;28;20226;-57
2023/12/21 09:43:24;;;;;;;0.77;0.60;;;9.00;99.90;;;;;;5074804;28;20206;-56
2023/12/21 09:45:52;;;;;;;0.70;0.70;;;9.00;99.90;;;;;;5069963;28;20221;-54
2023/12/21 09:48:20;;;;;;;0.50;0.50;;;9.00;99.90;;;;;;5078633;28;20559;-53
2023/12/21 09:50:50;;;;;;;2.10;0.83;;;9.00;99.90;;;;;;5066901;28;20214;-57
2023/12/21 09:53:21;;;;;;;2.20;0.80;;;9.10;99.90;;;;;;5066553;28;20206;-54
2023/12/21 09:55:50;;;;;;;3.23;0.80;;;9.10;99.90;;;;;;5045736;28;21779;-55
2023/12/21 09:58:17;;;;;;;0.90;0.53;;;9.10;99.90;;;;;;5087392;28;20215;-55
2023/12/21 10:00:43;;;;;;;0.97;0.63;;;9.10;99.90;;;;;;5066556;28;20206;-54
2023/12/21 10:03:10;;;;;;;0.40;0.40;;;9.10;99.90;;;;;;5068189;28;20195;-54
2023/12/21 10:05:39;;;;;;;1.17;0.50;;;9.10;99.90;;;;;;5058801;28;20211;-55
2023/12/21 10:08:06;;;;;;;0.73;0.50;;;9.10;99.90;;;;;;5081346;28;20285;-56
2023/12/21 10:10:35;;;;;;;0.80;0.40;;;9.10;99.90;;;;;;5068667;28;20271;-53
2023/12/21 10:13:03;;;;;;;0.50;0.50;;;9.10;99.90;;;;;;5051593;28;20224;-55
2023/12/21 10:15:32;;;;;;;0.27;0.20;;;9.20;99.90;;;;;;5063383;28;20206;-53
2023/12/21 10:17:59;;;;;;;1.60;0.40;;;9.10;99.90;;;;;;5068478;28;20603;-53
2023/12/21 10:20:26;;;;;;;0.80;0.33;;;9.20;99.90;;;;;;5073427;28;20213;-56
2023/12/21 10:22:56;;;;;;;0.40;0.40;;;9.20;99.90;;;;;;5077284;28;20251;-57
2023/12/21 10:25:23;;;;;;;0.43;0.40;;;9.20;99.90;;;;;;5075172;28;20206;-55
2023/12/21 10:27:55;;;;;;;1.27;0.30;;;9.20;99.90;;;;;;5048511;28;20799;-56
2023/12/21 10:30:23;;;;;;;0.57;0.30;;;9.30;99.90;;;;;;5073407;28;20213;-55
2023/12/21 10:32:52;;;;;;;0.53;0.40;;;9.30;99.90;;;;;;5083730;28;20265;-56
2023/12/21 10:35:19;;;;;;;1.43;0.40;;;9.30;99.90;;;;;;5073965;28;20191;-54
2023/12/21 10:37:46;;;;;;;4.30;0.60;;;9.30;99.90;;;;;;5067863;28;20268;-57
2023/12/21 10:40:14;;;;;;;1.57;0.60;;;9.40;99.90;;;;;;5077529;28;20241;-55
2023/12/21 10:42:44;;;;;;;0.47;0.47;;;9.40;99.90;;;;;;5048528;28;20683;-56
2023/12/21 10:45:18;;;;;;;1.23;0.60;;;9.40;99.90;;;;;;5078498;28;21516;-55
2023/12/21 10:47:49;;;;;;;2.50;0.40;;;9.40;99.90;;;;;;5075496;28;20202;-55
2023/12/21 10:50:17;;;;;;;1.87;0.77;;;9.40;99.90;;;;;;5068513;28;20226;-55
2023/12/21 10:52:46;;;;;;;1.77;0.60;;;9.40;99.90;;;;;;5065233;28;20278;-57
2023/12/21 10:55:15;;;;;;;2.87;0.53;;;9.50;99.90;;;;;;5063792;28;20960;-56
2023/12/21 10:57:43;;;;;;;0.83;0.57;;;9.40;99.90;;;;;;5045688;28;20182;-54
2023/12/21 11:00:13;;;;;;;2.00;0.53;;;9.40;99.90;;;;;;5076072;28;20222;-55
2023/12/21 11:02:44;;;;;;;1.77;0.80;;;9.50;99.90;;;;;;5066203;28;20190;-55
2023/12/21 11:05:15;;;;;;;3.50;0.90;;;9.50;99.90;;;;;;5065495;28;20248;-56
2023/12/21 11:07:42;;;;;;;3.57;0.90;;;9.50;99.90;;;;;;5063310;28;20221;-54
2023/12/21 11:10:10;;;;;;;4.47;1.10;;;9.50;99.90;;;;;;5069220;28;20263;-57
2023/12/21 11:12:37;;;;;;;3.77;0.80;;;9.50;99.90;;;;;;5066117;28;20758;-54
2023/12/21 11:15:05;;;;;;;5.10;0.73;;;9.50;99.90;;;;;;5049493;28;20222;-54
2023/12/21 11:17:33;;;;;;;2.67;1.03;;;9.50;99.90;;;;;;5059432;28;20673;-53
2023/12/21 11:20:02;;;;;;;7.77;1.17;;;9.50;99.90;;;;;;5074809;28;20301;-54
2023/12/21 11:22:29;;;;;;;5.47;1.60;;;9.50;99.90;;;;;;5071458;28;20251;-56
2023/12/21 11:25:03;;;;;;;7.03;1.40;;;9.60;99.90;;;;;;5067343;28;20241;-55
2023/12/21 11:27:31;;;;;;;4.93;1.30;;;9.60;99.90;;;;;;5076609;28;20349;-56
2023/12/21 11:30:10;;;;;;;6.30;1.67;;;9.60;99.90;;;;;;5048270;28;20618;-54
2023/12/21 11:32:38;;;;;;;7.20;1.20;;;9.60;99.90;;;;;;5073470;28;20657;-53
2023/12/21 11:35:18;;;;;;;8.03;1.33;;;9.60;99.90;;;;;;5075051;28;20186;-53
2023/12/21 11:37:45;;;;;;;6.30;2.03;;;9.60;99.90;;;;;;5065286;28;20191;-55
2023/12/21 11:40:14;;;;;;;8.27;1.93;;;9.60;99.90;;;;;;5066239;28;20280;-55
2023/12/21 11:42:46;;;;;;;12.23;2.10;;;9.70;99.90;;;;;;5083154;28;20663;-55
2023/12/21 11:45:20;;;;;;;10.47;1.93;;;9.70;99.90;;;;;;5060069;28;20574;-54
2023/12/21 11:47:47;;;;;;;7.20;1.70;;;9.60;99.90;;;;;;5074091;28;20217;-54
2023/12/21 11:50:20;;;;;;;9.20;1.83;;;9.60;99.90;;;;;;5073628;28;20234;-53
2023/12/21 11:52:47;;;;;;;5.30;1.30;;;9.60;99.90;;;;;;5065828;28;20855;-53
2023/12/21 11:55:25;;;;;;;12.60;1.47;;;9.20;99.90;;;;;;5069283;28;20197;-57
2023/12/21 11:58:07;;;;;;;6.13;1.13;;;9.10;99.90;;;;;;5065658;28;20209;-54
2023/12/21 12:00:34;;;;;;;2.07;0.83;;;8.90;99.90;;;;;;5061232;28;20298;-54
2023/12/21 12:03:01;;;;;;;5.23;1.20;;;8.70;99.90;;;;;;5071448;28;20256;-55
2023/12/21 12:05:30;;;;;;;3.10;0.90;;;8.60;99.90;;;;;;5076350;28;20194;-54
2023/12/21 12:07:57;;;;;;;4.90;1.10;;;8.50;99.90;;;;;;5064456;28;20233;-53
2023/12/21 12:10:23;;;;;;;7.53;1.50;;;8.40;99.90;;;;;;5074071;28;20226;-56
2023/12/21 12:12:52;;;;;;;3.37;0.97;;;8.30;99.90;;;;;;5069030;28;20322;-56
2023/12/21 12:15:19;;;;;;;4.27;1.23;;;8.20;99.90;;;;;;5078382;28;20198;-55
2023/12/21 12:17:46;;;;;;;5.70;1.50;;;8.10;99.90;;;;;;5048030;28;20875;-57
2023/12/21 12:20:13;;;;;;;3.37;1.03;;;8.00;99.90;;;;;;5075766;28;20218;-52
2023/12/21 12:22:44;;;;;;;4.90;0.83;;;7.90;99.90;;;;;;5070543;28;20202;-55
2023/12/21 12:25:11;;;;;;;5.07;2.00;;;7.90;99.90;;;;;;5065218;28;20236;-54
2023/12/21 12:27:38;;;;;;;7.53;1.57;;;7.90;99.90;;;;;;5064041;28;20296;-55
2023/12/21 12:30:05;;;;;;;6.67;1.57;;;7.90;99.90;;;;;;5078514;28;20198;-56
2023/12/21 12:32:33;;;;;;;4.80;1.57;;;7.90;99.90;;;;;;5052347;28;20210;-56
2023/12/21 12:34:59;;;;;;;7.10;1.57;;;7.90;99.90;;;;;;5073966;28;20186;-53
2023/12/21 12:37:26;;;;;;;4.40;1.47;;;7.90;99.90;;;;;;5080288;28;20740;-57
2023/12/21 12:39:54;;;;;;;3.57;1.00;;;7.90;99.90;;;;;;5063653;28;20230;-56
2023/12/21 12:42:21;;;;;;;6.70;1.30;;;7.80;99.90;;;;;;5082735;28;20206;-56
2023/12/21 12:44:51;;;;;;;5.37;1.13;;;7.80;99.90;;;;;;5081070;28;20198;-55
2023/12/21 12:47:19;;;;;;;6.50;1.43;;;7.80;99.90;;;;;;5087308;28;20575;-57
2023/12/21 12:49:47;;;;;;;4.43;1.10;;;7.80;99.90;;;;;;5055108;28;20291;-56
2023/12/21 12:52:16;;;;;;;9.53;1.57;;;7.80;99.90;;;;;;5078725;28;20190;-54
2023/12/21 12:54:43;;;;;;;9.83;1.47;;;7.70;99.90;;;;;;5076335;28;20277;-56
2023/12/21 12:57:12;;;;;;;7.40;1.10;;;7.70;99.90;;;;;;5084209;28;20276;-57